createdAt,value
2023-01-21T00:01:04.080Z,101002.41
2023-01-21T00:03:30.472Z,101004.00
2023-01-21T00:05:58.405Z,101008.81
2023-01-21T00:08:24.723Z,101014.16
2023-01-21T00:10:51.133Z,101011.25
2023-01-21T00:13:17.460Z,101010.50
2023-01-21T00:15:43.778Z,101021.97
2023-01-21T00:18:10.079Z,101017.16
2023-01-21T00:20:36.453Z,101020.75
2023-01-21T00:23:02.775Z,101018.75
2023-01-21T00:25:29.114Z,101019.28
2023-01-21T00:27:55.511Z,101027.50
2023-01-21T00:30:21.842Z,101023.31
2023-01-21T00:32:48.161Z,101025.25
2023-01-21T00:35:14.512Z,101021.09
2023-01-21T00:37:40.833Z,101015.22
2023-01-21T00:40:07.142Z,101020.69
2023-01-21T00:42:37.525Z,101014.19
2023-01-21T00:45:03.834Z,101009.66
2023-01-21T00:47:30.145Z,101016.44
2023-01-21T00:49:56.659Z,101021.75
2023-01-21T00:52:22.967Z,101014.28
2023-01-21T00:54:49.281Z,101021.66
2023-01-21T00:57:16.310Z,101029.06
2023-01-21T00:59:42.807Z,101029.81
2023-01-21T01:02:09.132Z,101039.84
2023-01-21T01:04:35.451Z,101034.53
2023-01-21T01:07:01.755Z,101040.84
2023-01-21T01:09:28.054Z,101049.34
2023-01-21T01:11:54.423Z,101038.38
2023-01-21T01:14:20.741Z,101048.94
2023-01-21T01:16:47.065Z,101039.97
2023-01-21T01:19:13.423Z,101035.44
2023-01-21T01:21:39.784Z,101033.31
2023-01-21T01:24:06.319Z,101033.72
2023-01-21T01:26:32.616Z,101032.31
2023-01-21T01:28:58.953Z,101027.63
2023-01-21T01:31:25.314Z,101037.94
2023-01-21T01:33:51.689Z,101036.50
2023-01-21T01:36:17.997Z,101044.47
2023-01-21T01:38:44.368Z,101040.78
2023-01-21T01:41:10.855Z,101044.47
2023-01-21T01:43:37.188Z,101041.72
2023-01-21T01:46:03.553Z,101052.66
2023-01-21T01:48:29.961Z,101042.19
2023-01-21T01:50:56.301Z,101055.03
2023-01-21T01:53:22.652Z,101060.47
2023-01-21T01:55:48.990Z,101059.31
2023-01-21T01:58:15.521Z,101054.25
2023-01-21T02:00:41.836Z,101050.72
2023-01-21T02:03:27.016Z,101055.53
2023-01-21T02:05:53.364Z,101050.03
2023-01-21T02:08:19.693Z,101051.47
2023-01-21T02:10:46.053Z,101060.53
2023-01-21T02:13:12.374Z,101075.59
2023-01-21T02:15:38.731Z,101081.69
2023-01-21T02:18:05.053Z,101071.13
2023-01-21T02:20:31.384Z,101063.09
2023-01-21T02:22:57.715Z,101073.56
2023-01-21T02:25:24.048Z,101083.91
2023-01-21T02:27:50.355Z,101086.00
2023-01-21T02:30:16.991Z,101086.56
2023-01-21T02:32:43.523Z,101086.47
2023-01-21T02:35:09.847Z,101087.41
2023-01-21T02:37:36.237Z,101093.97
2023-01-21T02:40:02.582Z,101095.69
2023-01-21T02:42:28.915Z,101094.31
2023-01-21T02:44:55.313Z,101095.22
2023-01-21T02:47:21.649Z,101105.59
2023-01-21T02:49:48.065Z,101091.22
2023-01-21T02:52:14.380Z,101089.59
2023-01-21T02:54:40.736Z,101092.44
2023-01-21T02:57:07.093Z,101100.97
2023-01-21T02:59:33.452Z,101104.53
2023-01-21T03:01:59.810Z,101105.09
2023-01-21T03:04:26.155Z,101111.66
2023-01-21T03:06:52.490Z,101109.66
2023-01-21T03:09:18.950Z,101101.53
2023-01-21T03:11:45.324Z,101114.09
2023-01-21T03:14:30.583Z,101109.94
2023-01-21T03:16:56.974Z,101118.75
2023-01-21T03:19:23.329Z,101109.56
2023-01-21T03:21:49.627Z,101109.19
2023-01-21T03:24:15.931Z,101110.84
2023-01-21T03:26:42.255Z,101118.69
2023-01-21T03:29:08.663Z,101121.66
2023-01-21T03:31:35.033Z,101123.06
2023-01-21T03:34:01.532Z,101134.50
2023-01-21T03:36:27.878Z,101111.16
2023-01-21T03:38:54.186Z,101121.59
2023-01-21T03:41:20.506Z,101126.72
2023-01-21T03:43:46.826Z,101126.72
2023-01-21T03:46:13.197Z,101128.50
2023-01-21T03:48:39.535Z,101127.91
2023-01-21T03:51:05.905Z,101131.50
2023-01-21T03:53:32.370Z,101129.97
2023-01-21T03:56:00.051Z,101130.66
2023-01-21T03:58:26.393Z,101126.72
2023-01-21T04:00:52.727Z,101124.44
2023-01-21T04:03:19.156Z,101130.62
2023-01-21T04:05:45.505Z,101130.12
2023-01-21T04:08:11.933Z,101129.09
2023-01-21T04:10:38.274Z,101137.78
2023-01-21T04:13:04.614Z,101141.53
2023-01-21T04:15:30.927Z,101136.16
2023-01-21T04:17:57.255Z,101133.22
2023-01-21T04:20:23.552Z,101139.44
2023-01-21T04:22:49.923Z,101137.88
2023-01-21T04:25:16.251Z,101140.38
2023-01-21T04:27:42.575Z,101144.63
2023-01-21T04:30:09.044Z,101143.25
2023-01-21T04:32:37.294Z,101132.22
2023-01-21T04:35:03.651Z,101140.91
2023-01-21T04:37:30.065Z,101144.63
2023-01-21T04:39:56.386Z,101147.00
2023-01-21T04:42:22.714Z,101138.97
2023-01-21T04:44:49.085Z,101147.00
2023-01-21T04:47:15.398Z,101139.56
2023-01-21T04:49:41.744Z,101139.34
2023-01-21T04:52:08.071Z,101152.53
2023-01-21T04:54:34.388Z,101134.81
2023-01-21T04:57:00.776Z,101135.84
2023-01-21T04:59:27.089Z,101139.94
2023-01-21T05:01:53.425Z,101147.75
2023-01-21T05:04:19.735Z,101150.03
2023-01-21T05:06:46.070Z,101146.78
2023-01-21T05:09:12.413Z,101156.06
2023-01-21T05:11:38.816Z,101150.78
2023-01-21T05:14:05.161Z,101164.38
2023-01-21T05:16:31.496Z,101163.44
2023-01-21T05:18:57.860Z,101157.16
2023-01-21T05:21:24.222Z,101166.34
2023-01-21T05:23:50.546Z,101160.09
2023-01-21T05:26:16.856Z,101162.81
2023-01-21T05:28:43.190Z,101168.47
2023-01-21T05:31:09.647Z,101165.97
2023-01-21T05:33:36.005Z,101171.81
2023-01-21T05:36:02.372Z,101176.41
2023-01-21T05:38:28.703Z,101174.03
2023-01-21T05:40:55.013Z,101171.94
2023-01-21T05:43:21.380Z,101173.84
2023-01-21T05:45:47.717Z,101167.97
2023-01-21T05:48:14.034Z,101169.53
2023-01-21T05:50:40.349Z,101164.69
2023-01-21T05:53:06.693Z,101163.69
2023-01-21T05:55:32.995Z,101167.00
2023-01-21T05:57:59.295Z,101163.91
2023-01-21T06:00:25.630Z,101164.53
2023-01-21T06:02:51.948Z,101169.13
2023-01-21T06:05:18.351Z,101174.03
2023-01-21T06:07:44.706Z,101173.25
2023-01-21T06:10:11.019Z,101180.41
2023-01-21T06:12:37.387Z,101175.75
2023-01-21T06:15:03.708Z,101180.53
2023-01-21T06:17:30.022Z,101176.22
2023-01-21T06:19:56.370Z,101168.47
2023-01-21T06:22:22.759Z,101176.94
2023-01-21T06:24:49.066Z,101183.25
2023-01-21T06:27:15.428Z,101185.13
2023-01-21T06:29:41.779Z,101186.06
2023-01-21T06:32:08.194Z,101191.59
2023-01-21T06:34:34.540Z,101182.87
2023-01-21T06:37:00.863Z,101184.78
2023-01-21T06:39:27.178Z,101180.50
2023-01-21T06:41:55.250Z,101185.47
2023-01-21T06:44:21.846Z,101188.81
2023-01-21T06:47:00.187Z,101183.97
2023-01-21T06:49:26.892Z,101180.72
2023-01-21T06:51:53.255Z,101185.19
2023-01-21T06:54:19.670Z,101180.66
2023-01-21T06:56:46.062Z,101187.72
2023-01-21T06:59:12.434Z,101200.34
2023-01-21T07:01:38.801Z,101194.34
2023-01-21T07:04:05.158Z,101198.38
2023-01-21T07:06:31.471Z,101184.62
2023-01-21T07:08:57.778Z,101186.69
2023-01-21T07:11:24.079Z,101181.44
2023-01-21T07:13:50.376Z,101186.69
2023-01-21T07:16:16.759Z,101186.44
2023-01-21T07:18:43.107Z,101183.97
2023-01-21T07:21:09.433Z,101187.84
2023-01-21T07:23:36.040Z,101191.41
2023-01-21T07:26:02.417Z,101201.06
2023-01-21T07:28:28.727Z,101203.81
2023-01-21T07:30:55.145Z,101213.97
2023-01-21T07:33:21.483Z,101205.38
2023-01-21T07:35:47.789Z,101199.16
2023-01-21T07:38:14.151Z,101206.34
2023-01-21T07:40:40.477Z,101213.56
2023-01-21T07:43:06.847Z,101221.47
2023-01-21T07:45:36.249Z,101217.72
2023-01-21T07:48:02.657Z,101206.87
2023-01-21T07:50:28.989Z,101211.97
2023-01-21T07:52:55.419Z,101210.22
2023-01-21T07:55:21.747Z,101214.59
2023-01-21T07:57:48.061Z,101217.34
2023-01-21T08:00:14.395Z,101219.94
2023-01-21T08:02:40.768Z,101227.50
2023-01-21T08:05:07.145Z,101212.25
2023-01-21T08:07:33.466Z,101207.94
2023-01-21T08:09:59.843Z,101215.91
2023-01-21T08:12:27.324Z,101211.72
2023-01-21T08:14:53.739Z,101209.84
2023-01-21T08:17:20.291Z,101213.59
2023-01-21T08:19:46.663Z,101210.03
2023-01-21T08:22:12.993Z,101216.09
2023-01-21T08:24:39.373Z,101214.47
2023-01-21T08:27:05.682Z,101213.25
2023-01-21T08:29:32.111Z,101222.69
2023-01-21T08:31:58.587Z,101218.62
2023-01-21T08:34:25.552Z,101214.06
2023-01-21T08:36:51.905Z,101213.31
2023-01-21T08:39:18.369Z,101206.22
2023-01-21T08:41:44.728Z,101212.87
2023-01-21T08:44:11.074Z,101208.12
2023-01-21T08:46:37.482Z,101208.16
2023-01-21T08:49:05.162Z,101212.16
2023-01-21T08:51:31.453Z,101199.63
2023-01-21T08:53:57.803Z,101204.50
2023-01-21T08:56:24.133Z,101209.00
2023-01-21T08:58:50.442Z,101195.81
2023-01-21T09:01:16.892Z,101212.91
2023-01-21T09:03:43.267Z,101222.19
2023-01-21T09:06:09.654Z,101215.06
2023-01-21T09:08:36.607Z,101214.72
2023-01-21T09:11:03.197Z,101221.75
2023-01-21T09:13:29.627Z,101226.87
2023-01-21T09:15:55.945Z,101224.66
2023-01-21T09:18:22.288Z,101224.19
2023-01-21T09:20:48.619Z,101223.31
2023-01-21T09:23:24.582Z,101224.31
2023-01-21T09:25:51.077Z,101228.41
2023-01-21T09:28:17.420Z,101221.94
2023-01-21T09:30:43.796Z,101228.06
2023-01-21T09:33:10.117Z,101217.97
2023-01-21T09:35:36.465Z,101229.03
2023-01-21T09:38:02.794Z,101221.38
2023-01-21T09:40:29.124Z,101233.59
2023-01-21T09:42:55.438Z,101221.06
2023-01-21T09:45:22.118Z,101217.41
2023-01-21T09:47:48.464Z,101222.16
2023-01-21T09:50:14.850Z,101218.66
2023-01-21T09:52:41.258Z,101206.00
2023-01-21T09:55:07.593Z,101203.91
2023-01-21T09:57:33.915Z,101204.09
2023-01-21T10:00:00.219Z,101204.88
2023-01-21T10:02:26.552Z,101209.19
2023-01-21T10:04:52.936Z,101204.44
2023-01-21T10:07:19.295Z,101199.19
2023-01-21T10:09:45.625Z,101208.09
2023-01-21T10:12:12.420Z,101198.97
2023-01-21T10:14:38.725Z,101200.63
2023-01-21T10:17:05.045Z,101200.03
2023-01-21T10:19:33.382Z,101204.13
2023-01-21T10:22:00.438Z,101207.63
2023-01-21T10:24:26.731Z,101202.38
2023-01-21T10:26:53.087Z,101204.59
2023-01-21T10:29:19.433Z,101192.66
2023-01-21T10:31:45.804Z,101190.31
2023-01-21T10:34:12.295Z,101185.22
2023-01-21T10:36:38.632Z,101180.72
2023-01-21T10:39:04.962Z,101180.72
2023-01-21T10:41:31.360Z,101167.59
2023-01-21T10:43:57.660Z,101178.84
2023-01-21T10:46:24.100Z,101180.91
2023-01-21T10:48:50.519Z,101181.97
2023-01-21T10:51:16.881Z,101174.16
2023-01-21T10:53:43.359Z,101172.75
2023-01-21T10:56:09.672Z,101168.09
2023-01-21T10:58:35.973Z,101158.97
2023-01-21T11:01:02.376Z,101162.09
2023-01-21T11:03:28.900Z,101145.87
2023-01-21T11:05:56.277Z,101146.78
2023-01-21T11:08:22.670Z,101151.50
2023-01-21T11:10:48.985Z,101143.47
2023-01-21T11:13:19.111Z,101147.25
2023-01-21T11:15:45.478Z,101145.72
2023-01-21T11:18:11.795Z,101149.16
2023-01-21T11:20:38.136Z,101150.94
2023-01-21T11:23:04.438Z,101148.84
2023-01-21T11:25:30.791Z,101146.28
2023-01-21T11:27:57.146Z,101139.47
2023-01-21T11:30:40.635Z,101137.47
2023-01-21T11:33:09.761Z,101130.44
2023-01-21T11:35:36.064Z,101130.84
2023-01-21T11:38:02.368Z,101119.03
2023-01-21T11:40:28.933Z,101112.53
2023-01-21T11:42:55.329Z,101110.09
2023-01-21T11:45:21.632Z,101113.69
2023-01-21T11:47:47.956Z,101117.78
2023-01-21T11:50:14.328Z,101099.19
2023-01-21T11:52:40.661Z,101095.56
2023-01-21T11:55:06.977Z,101097.91
2023-01-21T11:57:33.322Z,101090.94
2023-01-21T11:59:59.673Z,101079.66
2023-01-21T12:02:26.080Z,101098.69
2023-01-21T12:04:52.446Z,101091.66
2023-01-21T12:07:18.750Z,101094.59
2023-01-21T12:09:45.060Z,101087.03
2023-01-21T12:12:11.380Z,101087.69
2023-01-21T12:14:37.691Z,101093.22
2023-01-21T12:17:04.002Z,101088.00
2023-01-21T12:19:30.415Z,101081.47
2023-01-21T12:21:56.794Z,101087.19
2023-01-21T12:24:23.124Z,101085.44
2023-01-21T12:26:49.493Z,101083.22
2023-01-21T12:29:16.675Z,101094.06
2023-01-21T12:31:45.007Z,101090.13
2023-01-21T12:34:11.392Z,101075.13
2023-01-21T12:36:37.707Z,101085.06
2023-01-21T12:39:04.037Z,101079.78
2023-01-21T12:41:30.984Z,101063.81
2023-01-21T12:43:57.293Z,101062.53
2023-01-21T12:46:23.672Z,101060.28
2023-01-21T12:48:50.035Z,101056.44
2023-01-21T12:51:16.490Z,101051.50
2023-01-21T12:53:42.834Z,101045.72
2023-01-21T12:56:09.442Z,101050.63
2023-01-21T12:58:35.756Z,101037.22
2023-01-21T13:01:02.220Z,101027.81
2023-01-21T13:03:28.564Z,101039.12
2023-01-21T13:05:54.895Z,101021.38
2023-01-21T13:08:21.191Z,101023.37
2023-01-21T13:10:47.539Z,101012.34
2023-01-21T13:13:13.867Z,101000.94
2023-01-21T13:15:42.100Z,101014.47
2023-01-21T13:18:08.441Z,100995.81
2023-01-21T13:20:34.785Z,100988.69
2023-01-21T13:23:01.118Z,100981.78
2023-01-21T13:25:27.511Z,100976.47
2023-01-21T13:27:53.881Z,100982.75
2023-01-21T13:30:20.417Z,100975.38
2023-01-21T13:32:46.794Z,100972.37
2023-01-21T13:35:13.110Z,100979.25
2023-01-21T13:37:39.423Z,100978.56
2023-01-21T13:40:06.425Z,100973.56
2023-01-21T13:42:32.820Z,100965.78
2023-01-21T13:44:59.121Z,100965.25
2023-01-21T13:47:27.006Z,100978.81
2023-01-21T13:49:56.711Z,100968.53
2023-01-21T13:52:23.073Z,100975.53
2023-01-21T13:54:49.459Z,100968.66
2023-01-21T13:57:15.858Z,100966.88
2023-01-21T13:59:42.192Z,100966.31
2023-01-21T14:02:08.548Z,100959.59
2023-01-21T14:04:34.940Z,100956.22
2023-01-21T14:07:01.741Z,100954.03
2023-01-21T14:09:28.268Z,100954.72
2023-01-21T14:11:54.610Z,100963.88
2023-01-21T14:14:20.977Z,100956.41
2023-01-21T14:16:47.533Z,100963.50
2023-01-21T14:19:13.892Z,100951.16
2023-01-21T14:21:40.217Z,100952.78
2023-01-21T14:24:06.577Z,100956.16
2023-01-21T14:26:33.253Z,100950.88
2023-01-21T14:28:59.576Z,100951.38
2023-01-21T14:31:25.970Z,100955.72
2023-01-21T14:33:52.312Z,100967.34
2023-01-21T14:36:18.620Z,100955.00
2023-01-21T14:38:44.942Z,100954.12
2023-01-21T14:41:11.250Z,100951.87
2023-01-21T14:43:38.047Z,100955.28
2023-01-21T14:46:04.404Z,100958.56
2023-01-21T14:48:30.843Z,100945.63
2023-01-21T14:50:57.215Z,100945.94
2023-01-21T14:53:23.567Z,100938.47
2023-01-21T14:55:53.003Z,100944.56
2023-01-21T14:58:19.309Z,100940.34
2023-01-21T15:00:46.068Z,100945.06
2023-01-21T15:03:12.613Z,100941.72
2023-01-21T15:05:39.023Z,100942.31
2023-01-21T15:08:05.434Z,100933.31
2023-01-21T15:10:31.794Z,100931.87
2023-01-21T15:12:58.198Z,100941.72
2023-01-21T15:15:24.506Z,100929.34
2023-01-21T15:17:50.912Z,100932.16
2023-01-21T15:20:17.226Z,100940.44
2023-01-21T15:22:46.839Z,100932.66
2023-01-21T15:25:13.207Z,100934.53
2023-01-21T15:27:39.513Z,100934.25
2023-01-21T15:30:05.869Z,100935.66
2023-01-21T15:32:32.304Z,100942.31
2023-01-21T15:34:58.604Z,100937.31
2023-01-21T15:37:24.931Z,100938.25
2023-01-21T15:39:54.413Z,100936.59
2023-01-21T15:42:21.378Z,100940.19
2023-01-21T15:44:48.177Z,100934.34
2023-01-21T15:47:14.539Z,100932.94
2023-01-21T15:49:40.910Z,100932.47
2023-01-21T15:52:07.305Z,100926.41
2023-01-21T15:54:33.684Z,100934.91
2023-01-21T15:56:59.997Z,100928.00
2023-01-21T15:59:26.405Z,100933.75
2023-01-21T16:01:52.720Z,100928.00
2023-01-21T16:04:19.788Z,100937.09
2023-01-21T16:06:46.365Z,100928.78
2023-01-21T16:09:12.722Z,100927.12
2023-01-21T16:11:40.563Z,100921.44
2023-01-21T16:14:06.900Z,100926.78
2023-01-21T16:16:33.601Z,100919.25
2023-01-21T16:18:59.921Z,100921.69
2023-01-21T16:21:26.295Z,100917.56
2023-01-21T16:23:52.591Z,100913.16
2023-01-21T16:26:18.917Z,100921.19
2023-01-21T16:28:46.540Z,100919.31
2023-01-21T16:31:12.969Z,100917.38
2023-01-21T16:33:39.376Z,100908.53
2023-01-21T16:36:07.337Z,100913.97
2023-01-21T16:38:33.778Z,100906.03
2023-01-21T16:41:00.106Z,100907.41
2023-01-21T16:43:26.452Z,100912.44
2023-01-21T16:45:53.180Z,100910.53
2023-01-21T16:48:19.569Z,100921.50
2023-01-21T16:50:45.954Z,100915.69
2023-01-21T16:53:12.485Z,100911.03
2023-01-21T16:55:38.908Z,100913.78
2023-01-21T16:58:05.527Z,100905.53
2023-01-21T17:00:31.871Z,100911.94
2023-01-21T17:02:58.265Z,100915.22
2023-01-21T17:05:24.655Z,100918.81
2023-01-21T17:07:51.125Z,100920.47
2023-01-21T17:10:17.558Z,100926.22
2023-01-21T17:12:43.941Z,100916.00
2023-01-21T17:15:10.273Z,100912.50
2023-01-21T17:17:36.583Z,100921.00
2023-01-21T17:20:02.923Z,100919.91
2023-01-21T17:22:29.223Z,100924.03
2023-01-21T17:24:55.581Z,100917.44
2023-01-21T17:27:23.412Z,100919.38
2023-01-21T17:29:49.740Z,100917.16
2023-01-21T17:32:16.064Z,100917.50
2023-01-21T17:34:42.407Z,100913.62
2023-01-21T17:37:08.744Z,100920.97
2023-01-21T17:39:35.057Z,100914.50
2023-01-21T17:42:01.363Z,100923.94
2023-01-21T17:44:29.132Z,100925.19
2023-01-21T17:46:55.442Z,100929.94
2023-01-21T17:49:21.770Z,100943.34
2023-01-21T17:51:49.973Z,100935.06
2023-01-21T17:54:16.502Z,100937.56
2023-01-21T17:56:43.002Z,100935.13
2023-01-21T17:59:09.337Z,100944.22
2023-01-21T18:01:35.728Z,100941.16
2023-01-21T18:04:02.094Z,100942.84
2023-01-21T18:06:28.416Z,100947.62
2023-01-21T18:08:54.809Z,100951.47
2023-01-21T18:11:21.193Z,100951.63
2023-01-21T18:13:47.582Z,100952.84
2023-01-21T18:16:14.003Z,100946.75
2023-01-21T18:18:40.379Z,100951.41
2023-01-21T18:21:06.767Z,100957.19
2023-01-21T18:23:33.094Z,100953.66
2023-01-21T18:25:59.481Z,100954.09
2023-01-21T18:28:26.127Z,100958.09
2023-01-21T18:30:52.523Z,100955.59
2023-01-21T18:33:18.884Z,100955.34
2023-01-21T18:35:45.214Z,100957.78
2023-01-21T18:40:43.041Z,100961.28
2023-01-21T18:43:09.356Z,100963.59
2023-01-21T18:45:35.764Z,100968.38
2023-01-21T18:48:02.085Z,100968.50
2023-01-21T18:50:28.427Z,100960.19
2023-01-21T18:52:54.727Z,100957.25
2023-01-21T18:55:21.101Z,100963.38
2023-01-21T18:57:47.588Z,100960.78
2023-01-21T19:00:13.981Z,100956.13
2023-01-21T19:02:40.379Z,100970.19
2023-01-21T19:05:06.733Z,100971.88
2023-01-21T19:07:33.995Z,100959.84
2023-01-21T19:10:00.307Z,100965.84
2023-01-21T19:12:26.823Z,100961.03
2023-01-21T19:14:53.158Z,100954.47
2023-01-21T19:17:19.526Z,100950.59
2023-01-21T19:19:45.845Z,100962.41
2023-01-21T19:22:12.274Z,100963.63
2023-01-21T19:24:38.590Z,100969.88
2023-01-21T19:27:06.343Z,100962.00
2023-01-21T19:29:32.675Z,100966.66
2023-01-21T19:31:59.197Z,100969.22
2023-01-21T19:34:26.817Z,100970.31
2023-01-21T19:36:53.246Z,100967.56
2023-01-21T19:39:19.570Z,100970.28
2023-01-21T19:41:45.896Z,100976.41
2023-01-21T19:44:12.220Z,100975.91
2023-01-21T19:46:38.654Z,100968.22
2023-01-21T19:49:05.006Z,100979.44
2023-01-21T19:51:32.188Z,100988.81
2023-01-21T19:53:58.760Z,100993.19
2023-01-21T19:56:25.075Z,101004.06
2023-01-21T19:58:51.451Z,101008.16
2023-01-21T20:01:17.885Z,101005.56
2023-01-21T20:03:58.713Z,101012.03
2023-01-21T20:06:25.867Z,101006.09
2023-01-21T20:08:52.200Z,101006.31
2023-01-21T20:11:18.580Z,101011.47
2023-01-21T20:13:44.939Z,101010.84
2023-01-21T20:16:11.307Z,101024.53
2023-01-21T20:18:37.692Z,101027.44
2023-01-21T20:21:04.190Z,101025.44
2023-01-21T20:23:32.717Z,101031.69
2023-01-21T20:25:59.207Z,101032.56
2023-01-21T20:28:25.507Z,101034.59
2023-01-21T20:30:51.845Z,101030.88
2023-01-21T20:33:18.198Z,101038.62
2023-01-21T20:35:44.557Z,101037.06
2023-01-21T20:38:11.481Z,101044.81
2023-01-21T20:40:37.836Z,101034.38
2023-01-21T20:43:04.165Z,101044.34
2023-01-21T20:45:30.533Z,101047.91
2023-01-21T20:47:56.922Z,101040.03
2023-01-21T20:50:23.300Z,101040.53
2023-01-21T20:52:49.698Z,101053.13
2023-01-21T20:55:17.860Z,101052.12
2023-01-21T20:57:46.294Z,101050.72
2023-01-21T21:00:12.645Z,101056.69
2023-01-21T21:02:38.968Z,101062.44
2023-01-21T21:05:05.304Z,101064.44
2023-01-21T21:07:31.608Z,101070.28
2023-01-21T21:10:00.130Z,101066.19
2023-01-21T21:12:26.473Z,101070.84
2023-01-21T21:14:52.850Z,101079.44
2023-01-21T21:17:19.204Z,101075.38
2023-01-21T21:19:45.548Z,101081.22
2023-01-21T21:22:12.007Z,101073.53
2023-01-21T21:24:38.338Z,101081.53
2023-01-21T21:27:04.864Z,101081.97
2023-01-21T21:29:31.213Z,101078.25
2023-01-21T21:31:59.134Z,101083.47
2023-01-21T21:34:27.677Z,101077.63
2023-01-21T21:36:54.029Z,101085.00
2023-01-21T21:39:22.063Z,101095.28
2023-01-21T21:42:07.497Z,101083.19
2023-01-21T21:44:33.823Z,101099.72
2023-01-21T21:47:19.059Z,101089.66
2023-01-21T21:49:45.373Z,101101.34
2023-01-21T21:52:17.391Z,101102.09
2023-01-21T21:54:43.736Z,101103.31
2023-01-21T21:57:10.102Z,101093.09
2023-01-21T21:59:36.399Z,101095.56
2023-01-21T22:02:06.548Z,101094.50
2023-01-21T22:04:33.030Z,101099.03
2023-01-21T22:06:59.401Z,101103.47
2023-01-21T22:09:25.734Z,101103.19
2023-01-21T22:11:52.143Z,101100.88
2023-01-21T22:14:18.493Z,101105.06
2023-01-21T22:16:45.034Z,101103.41
2023-01-21T22:19:11.376Z,101096.53
2023-01-21T22:21:37.715Z,101103.91
2023-01-21T22:24:04.061Z,101100.28
2023-01-21T22:26:30.550Z,101115.72
2023-01-21T22:28:56.991Z,101111.72
2023-01-21T22:31:23.562Z,101112.47
2023-01-21T22:33:49.953Z,101113.56
2023-01-21T22:36:16.275Z,101115.22
2023-01-21T22:38:42.605Z,101124.00
2023-01-21T22:41:08.953Z,101120.12
2023-01-21T22:43:35.281Z,101126.22
2023-01-21T22:46:01.629Z,101127.84
2023-01-21T22:48:28.104Z,101135.31
2023-01-21T22:50:54.501Z,101127.84
2023-01-21T22:53:20.957Z,101130.03
2023-01-21T22:55:47.281Z,101131.16
2023-01-21T22:58:13.589Z,101126.66
2023-01-21T23:00:39.930Z,101126.56
2023-01-21T23:03:06.283Z,101132.16
2023-01-21T23:05:32.689Z,101127.16
2023-01-21T23:10:26.402Z,101131.66
2023-01-21T23:12:52.769Z,101134.91
2023-01-21T23:15:19.081Z,101141.22
2023-01-21T23:17:45.389Z,101137.22
2023-01-21T23:20:11.714Z,101135.28
2023-01-21T23:22:38.024Z,101145.13
2023-01-21T23:25:04.344Z,101144.31
2023-01-21T23:27:30.671Z,101148.72
2023-01-21T23:29:56.964Z,101137.00
2023-01-21T23:32:23.279Z,101140.41
2023-01-21T23:34:49.641Z,101146.25
2023-01-21T23:37:15.951Z,101149.41
2023-01-21T23:39:43.141Z,101142.94
2023-01-21T23:42:09.498Z,101151.28
2023-01-21T23:44:35.830Z,101152.59
2023-01-21T23:47:02.150Z,101148.87
2023-01-21T23:49:28.524Z,101146.88
2023-01-21T23:51:54.829Z,101141.84
2023-01-21T23:54:21.184Z,101156.56
2023-01-21T23:56:47.500Z,101154.88
2023-01-21T23:59:13.856Z,101152.28
